Time;durP1;ratioP1;P1;durP2;ratioP2;P2;SDS_P1;SDS_P2;PMS_P1;PMS_P2;Temp;Humidity;BMP_temperature;BMP_pressure;BME280_temperature;BME280_humidity;BME280_pressure;Samples;Min_cycle;Max_cycle;Signal;HPM_P1;HPM_P2
2024/03/26 00:02:18;;;;;;;1.95;0.15;;;;;;;7.26;65.15;99872.72;5040148;28;20489;-67
2024/03/26 00:04:43;;;;;;;2.83;0.40;;;;;;;7.20;65.33;99874.09;5043373;28;20028;-67
2024/03/26 00:07:09;;;;;;;1.00;0.30;;;;;;;7.17;65.14;99874.38;5035102;28;20037;-67
2024/03/26 00:09:34;;;;;;;1.38;0.13;;;;;;;7.15;65.30;99872.88;5040183;28;20027;-67
2024/03/26 00:12:00;;;;;;;2.72;0.25;;;;;;;7.12;63.72;99867.97;5034658;28;20036;-67
2024/03/26 00:14:25;;;;;;;1.90;0.20;;;;;;;7.09;64.39;99861.28;5038852;28;20032;-67
2024/03/26 00:16:51;;;;;;;0.93;0.38;;;;;;;7.09;64.20;99860.50;5033889;28;20079;-67
2024/03/26 00:19:16;;;;;;;0.68;0.30;;;;;;;7.04;63.88;99855.72;5035914;28;20120;-67
2024/03/26 00:21:42;;;;;;;2.05;0.20;;;;;;;6.97;65.16;99846.84;5032075;28;20026;-67
2024/03/26 00:24:07;;;;;;;2.25;0.40;;;;;;;6.93;65.11;99854.06;5033876;28;20042;-66
2024/03/26 00:26:34;;;;;;;8.40;0.20;;;;;;;6.94;65.63;99836.75;5039684;28;20036;-67
2024/03/26 00:29:00;;;;;;;0.50;0.20;;;;;;;6.93;64.61;99838.53;5041057;28;20029;-67
2024/03/26 00:31:31;;;;;;;0.75;0.10;;;;;;;6.95;64.71;99831.44;5042584;28;20144;-67
2024/03/26 00:33:58;;;;;;;0.45;0.10;;;;;;;6.97;64.66;99837.31;5037794;28;20041;-67
2024/03/26 00:36:23;;;;;;;0.32;0.10;;;;;;;6.97;63.95;99832.13;5037233;28;20358;-67
2024/03/26 00:38:49;;;;;;;0.40;0.10;;;;;;;6.93;64.78;99833.34;5039989;28;20087;-67
2024/03/26 00:41:14;;;;;;;1.90;0.20;;;;;;;6.89;64.60;99837.16;5037491;28;20091;-67
2024/03/26 00:43:40;;;;;;;0.88;0.10;;;;;;;6.92;64.55;99834.31;5035290;28;20057;-67
2024/03/26 00:46:05;;;;;;;1.38;0.20;;;;;;;6.98;65.00;99827.78;5039451;28;20551;-67
2024/03/26 00:48:31;;;;;;;2.00;0.13;;;;;;;6.96;65.12;99832.25;5043140;28;20479;-67
2024/03/26 00:50:56;;;;;;;3.50;0.20;;;;;;;6.91;66.42;99826.69;5037292;28;20453;-67
2024/03/26 00:53:22;;;;;;;0.60;0.15;;;;;;;6.88;65.87;99832.13;5043826;28;20457;-67
2024/03/26 00:55:47;;;;;;;0.75;0.20;;;;;;;6.81;66.06;99826.66;5043000;28;20036;-67
2024/03/26 00:58:12;;;;;;;3.40;0.10;;;;;;;6.74;66.90;99820.41;5041756;28;20112;-67
2024/03/26 01:00:38;;;;;;;1.00;0.28;;;;;;;6.66;66.82;99817.66;5040844;28;20036;-67
2024/03/26 01:03:04;;;;;;;2.15;0.10;;;;;;;6.61;66.78;99823.28;5043111;28;20112;-67
2024/03/26 01:05:30;;;;;;;4.90;0.13;;;;;;;6.51;66.60;99824.19;5040353;28;20032;-67
2024/03/26 01:07:55;;;;;;;1.33;0.20;;;;;;;6.50;66.20;99820.78;5045854;28;20033;-67
2024/03/26 01:10:21;;;;;;;0.95;0.20;;;;;;;6.49;65.56;99826.09;5042957;28;20050;-67
2024/03/26 01:12:46;;;;;;;2.38;0.10;;;;;;;6.49;65.87;99823.53;5041434;28;20061;-67
2024/03/26 01:15:12;;;;;;;1.67;0.10;;;;;;;6.54;65.69;99829.94;5040164;28;21220;-67
2024/03/26 01:17:37;;;;;;;0.50;0.10;;;;;;;6.49;65.34;99820.94;5046155;28;20037;-66
2024/03/26 01:20:04;;;;;;;0.28;0.10;;;;;;;6.50;65.17;99817.38;5038495;28;20429;-67
2024/03/26 01:22:30;;;;;;;0.60;0.10;;;;;;;6.47;64.19;99810.72;5038655;28;20044;-67
2024/03/26 01:24:55;;;;;;;1.42;0.30;;;;;;;6.32;66.75;99812.84;5042005;28;20473;-67
2024/03/26 01:27:20;;;;;;;1.05;0.22;;;;;;;6.06;69.38;99809.13;5036025;28;20037;-67
2024/03/26 01:29:46;;;;;;;1.42;0.45;;;;;;;5.83;71.55;99812.81;5048418;28;20067;-67
2024/03/26 01:32:11;;;;;;;3.40;0.60;;;;;;;5.74;70.91;99798.91;5038359;28;20039;-67
2024/03/26 01:34:37;;;;;;;3.45;0.73;;;;;;;5.85;69.26;99805.75;5040498;28;20053;-67
2024/03/26 01:37:02;;;;;;;1.83;0.57;;;;;;;5.90;68.64;99798.44;5039658;28;20067;-67
2024/03/26 01:39:28;;;;;;;2.60;0.50;;;;;;;5.99;67.86;99788.16;5039919;28;20603;-67
2024/03/26 01:41:53;;;;;;;1.35;0.35;;;;;;;6.09;66.41;99784.78;5042170;28;20040;-67
2024/03/26 01:44:19;;;;;;;1.17;0.20;;;;;;;6.19;66.48;99783.00;5039759;28;20029;-67
2024/03/26 01:46:44;;;;;;;1.25;0.10;;;;;;;6.26;64.10;99782.34;5040058;28;20025;-67
2024/03/26 01:49:11;;;;;;;0.43;0.05;;;;;;;6.32;63.87;99775.81;5037629;28;20033;-67
2024/03/26 01:51:39;;;;;;;0.30;0.10;;;;;;;6.37;64.26;99778.00;5036616;28;20063;-67
2024/03/26 01:54:06;;;;;;;0.45;0.10;;;;;;;6.33;64.28;99769.69;5043025;28;20128;-67
2024/03/26 01:56:32;;;;;;;0.35;0.10;;;;;;;6.32;65.40;99770.66;5041420;28;20036;-67
2024/03/26 01:58:58;;;;;;;1.55;0.13;;;;;;;6.31;65.51;99767.25;5042374;28;20033;-67
2024/03/26 02:01:27;;;;;;;1.10;0.10;;;;;;;6.27;65.93;99763.28;5043687;28;20033;-67
2024/03/26 02:03:54;;;;;;;1.00;0.20;;;;;;;6.25;66.16;99760.00;5042365;28;20033;-66
2024/03/26 02:06:19;;;;;;;0.43;0.13;;;;;;;6.28;65.77;99756.34;5040489;28;20033;-67
2024/03/26 02:08:46;;;;;;;5.20;0.10;;;;;;;6.25;65.57;99754.84;5039499;28;20369;-67
2024/03/26 02:11:11;;;;;;;1.48;0.10;;;;;;;6.27;65.32;99750.34;5037607;28;20025;-66
2024/03/26 02:13:37;;;;;;;1.48;0.10;;;;;;;6.28;64.80;99748.56;5041139;28;20024;-66
2024/03/26 02:16:02;;;;;;;3.45;0.10;;;;;;;6.29;64.63;99747.63;5046768;28;20028;-67
2024/03/26 02:18:28;;;;;;;1.55;0.10;;;;;;;6.29;64.33;99748.44;5043876;28;20037;-67
2024/03/26 02:20:53;;;;;;;0.75;0.10;;;;;;;6.28;64.85;99741.63;5043998;28;20056;-67
2024/03/26 02:23:20;;;;;;;2.35;0.10;;;;;;;6.29;65.64;99748.44;5045776;28;20041;-67
2024/03/26 02:25:46;;;;;;;0.82;0.10;;;;;;;6.25;65.29;99747.06;5046576;28;20502;-67
2024/03/26 02:28:11;;;;;;;0.45;0.20;;;;;;;6.22;64.94;99739.59;5042138;28;20119;-67
2024/03/26 02:30:37;;;;;;;2.72;0.20;;;;;;;6.20;64.86;99731.13;5049194;28;20028;-66
2024/03/26 02:33:02;;;;;;;0.38;0.10;;;;;;;6.18;64.54;99732.22;5045736;28;20048;-66
2024/03/26 02:35:28;;;;;;;0.77;0.10;;;;;;;6.15;64.05;99725.53;5040373;28;20086;-66
2024/03/26 02:37:54;;;;;;;0.30;0.10;;;;;;;6.16;64.07;99719.41;5044516;28;20048;-67
2024/03/26 02:40:19;;;;;;;0.57;0.05;;;;;;;6.15;63.62;99719.56;5047813;28;20040;-67
2024/03/26 02:42:47;;;;;;;0.98;0.10;;;;;;;6.15;63.69;99719.56;5047973;28;20021;-67
2024/03/26 02:45:12;;;;;;;1.67;0.10;;;;;;;6.19;62.42;99715.75;5041643;28;20063;-67
2024/03/26 02:47:38;;;;;;;0.30;0.10;;;;;;;6.22;63.44;99720.66;5046892;28;20048;-67
2024/03/26 02:50:05;;;;;;;0.70;0.17;;;;;;;6.16;64.07;99719.41;5048918;28;20044;-67
2024/03/26 02:52:30;;;;;;;0.52;0.10;;;;;;;6.13;63.98;99716.31;5040314;28;20033;-67
2024/03/26 02:54:56;;;;;;;0.30;0.08;;;;;;;6.14;63.00;99718.78;5040461;28;20469;-66
2024/03/26 02:57:21;;;;;;;0.75;0.10;;;;;;;6.13;62.82;99722.31;5040547;28;20049;-66
2024/03/26 02:59:47;;;;;;;0.32;0.10;;;;;;;6.15;64.36;99720.38;5041012;28;20229;-66
2024/03/26 03:02:12;;;;;;;0.77;0.10;;;;;;;6.12;63.65;99719.84;5043410;28;20029;-66
2024/03/26 03:04:37;;;;;;;2.38;0.10;;;;;;;6.11;64.36;99713.88;5040661;28;20040;-67
2024/03/26 03:07:03;;;;;;;0.90;0.00;;;;;;;6.09;63.68;99715.75;5041427;28;20032;-67
2024/03/26 03:09:28;;;;;;;2.22;0.10;;;;;;;6.06;64.31;99720.38;5047613;28;20086;-66
2024/03/26 03:11:54;;;;;;;1.00;0.10;;;;;;;6.03;65.02;99711.13;5042770;28;20025;-66
2024/03/26 03:14:19;;;;;;;2.67;0.10;;;;;;;5.95;64.59;99705.78;5032601;28;20033;-66
2024/03/26 03:16:45;;;;;;;0.28;0.00;;;;;;;5.90;64.92;99711.38;5043935;28;20088;-66
2024/03/26 03:19:10;;;;;;;4.53;0.10;;;;;;;5.90;65.42;99703.59;5038987;28;20362;-67
2024/03/26 03:21:36;;;;;;;0.75;0.10;;;;;;;5.90;63.92;99707.97;5037412;28;20060;-67
2024/03/26 03:24:01;;;;;;;0.73;0.10;;;;;;;5.93;64.32;99712.88;5037884;28;20032;-67
2024/03/26 03:26:27;;;;;;;0.38;0.10;;;;;;;5.91;64.49;99707.00;5041233;28;20056;-66
2024/03/26 03:28:53;;;;;;;2.75;0.10;;;;;;;5.89;64.14;99703.75;5041854;28;20036;-66
2024/03/26 03:31:18;;;;;;;3.67;0.10;;;;;;;5.92;64.05;99704.28;5041211;28;20548;-66
2024/03/26 03:33:43;;;;;;;0.38;0.08;;;;;;;5.99;63.37;99700.22;5038567;28;20053;-67
2024/03/26 03:36:09;;;;;;;0.20;0.05;;;;;;;6.08;63.04;99703.78;5030718;28;20068;-67
2024/03/26 03:38:34;;;;;;;1.45;0.10;;;;;;;6.07;63.04;99703.91;5047710;28;20032;-67
2024/03/26 03:41:00;;;;;;;0.60;0.13;;;;;;;6.06;63.47;99689.34;5041560;28;20203;-67
2024/03/26 03:43:25;;;;;;;1.77;0.10;;;;;;;6.09;63.53;99681.31;5046466;28;20087;-69
2024/03/26 03:45:51;;;;;;;0.38;0.00;;;;;;;6.09;64.22;99679.56;5042821;28;20111;-67
2024/03/26 03:48:16;;;;;;;3.20;0.17;;;;;;;6.01;64.42;99671.66;5044773;28;20082;-67
2024/03/26 03:50:42;;;;;;;0.68;0.10;;;;;;;5.98;64.74;99675.31;5040241;28;20029;-67
2024/03/26 03:53:08;;;;;;;0.70;0.13;;;;;;;6.01;64.26;99671.66;5046344;28;20052;-67
2024/03/26 03:55:33;;;;;;;0.35;0.10;;;;;;;6.01;64.72;99671.66;5042321;28;20043;-67
2024/03/26 03:57:58;;;;;;;0.80;0.00;;;;;;;5.95;65.44;99665.25;5045909;28;20059;-67
2024/03/26 04:00:24;;;;;;;2.15;0.10;;;;;;;5.93;65.34;99653.41;5046566;28;20044;-67
2024/03/26 04:02:49;;;;;;;0.30;0.10;;;;;;;5.88;65.70;99652.94;5043756;28;20028;-67
2024/03/26 04:05:15;;;;;;;1.60;0.10;;;;;;;5.84;65.87;99638.66;5041954;28;20493;-67
2024/03/26 04:07:41;;;;;;;0.20;0.00;;;;;;;5.82;66.27;99625.88;5046459;28;20082;-67
2024/03/26 04:10:07;;;;;;;1.58;0.20;;;;;;;5.81;66.18;99618.25;5046005;28;20135;-67
2024/03/26 04:12:32;;;;;;;2.80;0.10;;;;;;;5.81;66.15;99613.06;5041333;28;20037;-67
2024/03/26 04:14:58;;;;;;;1.02;0.10;;;;;;;5.78;66.09;99618.50;5044103;28;20362;-67
2024/03/26 04:17:23;;;;;;;0.22;0.10;;;;;;;5.78;66.69;99611.56;5042710;28;20083;-67
2024/03/26 04:19:49;;;;;;;0.77;0.17;;;;;;;5.80;66.70;99611.44;5037261;28;20044;-67
2024/03/26 04:22:15;;;;;;;1.60;0.10;;;;;;;5.81;66.30;99608.72;5037296;28;20037;-67
2024/03/26 04:24:40;;;;;;;1.23;0.20;;;;;;;5.82;67.26;99607.78;5041455;28;20087;-67
2024/03/26 04:27:06;;;;;;;1.20;0.40;;;;;;;5.80;67.01;99606.28;5040540;28;20078;-67
2024/03/26 04:29:32;;;;;;;1.55;0.20;;;;;;;5.78;66.90;99614.16;5044098;28;20167;-66
2024/03/26 04:31:57;;;;;;;1.13;0.13;;;;;;;5.76;67.39;99621.22;5039947;28;20755;-67
2024/03/26 04:34:23;;;;;;;1.30;0.17;;;;;;;5.70;67.56;99626.94;5037721;28;20040;-67
2024/03/26 04:36:51;;;;;;;2.47;0.10;;;;;;;5.68;67.34;99619.31;5036102;28;20043;-67
2024/03/26 04:39:17;;;;;;;1.10;0.10;;;;;;;5.71;67.65;99622.56;5042685;28;20048;-67
2024/03/26 04:41:42;;;;;;;2.83;0.10;;;;;;;5.66;67.58;99621.25;5040355;28;20029;-68
2024/03/26 04:44:08;;;;;;;1.00;0.10;;;;;;;5.73;67.96;99636.19;5036366;28;20036;-66
2024/03/26 04:46:33;;;;;;;1.23;0.10;;;;;;;5.74;67.31;99638.63;5041560;28;20053;-67
2024/03/26 04:48:59;;;;;;;1.15;0.52;;;;;;;5.78;67.64;99634.84;5037246;28;20033;-67
2024/03/26 04:51:25;;;;;;;7.32;0.40;;;;;;;5.80;66.98;99639.88;5043829;28;20037;-66
2024/03/26 04:53:51;;;;;;;0.15;0.00;;;;;;;5.80;67.75;99648.44;5040131;28;20437;-66
2024/03/26 04:56:16;;;;;;;1.23;0.10;;;;;;;5.82;66.98;99645.72;5039538;28;20120;-67
2024/03/26 04:58:43;;;;;;;0.50;0.10;;;;;;;5.87;66.87;99648.72;5036294;28;20465;-66
2024/03/26 05:01:08;;;;;;;1.55;0.20;;;;;;;5.89;67.22;99649.44;5030270;28;20037;-66
2024/03/26 05:03:34;;;;;;;0.65;0.10;;;;;;;5.93;66.77;99653.41;5035995;28;20515;-66
2024/03/26 05:05:59;;;;;;;1.05;0.10;;;;;;;5.97;67.17;99652.19;5035404;28;20496;-67
2024/03/26 05:08:25;;;;;;;2.30;0.10;;;;;;;5.99;67.89;99645.09;5033071;28;20041;-67
2024/03/26 05:10:50;;;;;;;1.17;0.45;;;;;;;5.94;69.05;99644.69;5038083;28;20439;-67
2024/03/26 05:13:16;;;;;;;1.63;0.38;;;;;;;5.83;69.33;99644.78;5040318;28;20645;-67
2024/03/26 05:15:41;;;;;;;2.33;0.30;;;;;;;5.77;68.75;99637.56;5043225;28;20059;-67
2024/03/26 05:18:07;;;;;;;3.63;0.40;;;;;;;5.85;68.21;99650.63;5035208;28;20095;-67
2024/03/26 05:20:32;;;;;;;0.70;0.20;;;;;;;5.90;68.12;99651.09;5040543;28;20028;-67
2024/03/26 05:22:58;;;;;;;0.95;0.20;;;;;;;5.97;67.50;99647.81;5037516;28;20043;-67
2024/03/26 05:25:23;;;;;;;3.50;0.60;;;;;;;5.98;66.92;99646.88;5041962;28;20077;-67
2024/03/26 05:27:49;;;;;;;2.15;0.10;;;;;;;6.01;67.00;99652.72;5037706;28;20060;-67
2024/03/26 05:30:14;;;;;;;0.82;0.10;;;;;;;6.04;66.78;99655.88;5033198;28;20170;-67
2024/03/26 05:32:40;;;;;;;1.05;0.10;;;;;;;6.05;66.31;99648.94;5037588;28;20045;-66
2024/03/26 05:35:06;;;;;;;1.02;0.10;;;;;;;6.09;66.04;99658.06;5037377;28;20044;-67
2024/03/26 05:37:32;;;;;;;2.08;0.17;;;;;;;6.11;66.75;99662.13;5041208;28;20090;-67
2024/03/26 05:39:58;;;;;;;5.63;0.20;;;;;;;6.10;66.61;99668.25;5035762;28;20041;-66
2024/03/26 05:42:23;;;;;;;3.75;0.20;;;;;;;6.12;66.82;99674.13;5040672;28;20923;-66
2024/03/26 05:44:48;;;;;;;1.70;0.30;;;;;;;6.12;66.98;99684.47;5041956;28;20040;-67
2024/03/26 05:47:14;;;;;;;1.50;0.10;;;;;;;6.14;67.16;99686.91;5042019;28;20092;-66
2024/03/26 05:49:39;;;;;;;3.72;0.25;;;;;;;6.11;67.38;99688.00;5047318;28;20534;-67
2024/03/26 05:52:05;;;;;;;1.90;0.13;;;;;;;6.12;67.34;99683.66;5031848;28;20029;-67
2024/03/26 05:54:30;;;;;;;0.40;0.10;;;;;;;6.10;67.75;99678.59;5039886;28;20029;-66
2024/03/26 05:56:56;;;;;;;3.65;0.28;;;;;;;6.14;67.54;99679.16;5042691;28;20049;-67
2024/03/26 05:59:21;;;;;;;1.98;0.20;;;;;;;6.21;67.94;99691.38;5042027;28;20033;-66
2024/03/26 06:01:47;;;;;;;1.30;0.10;;;;;;;6.29;66.82;99691.53;5044050;28;20488;-67
2024/03/26 06:04:12;;;;;;;4.40;0.13;;;;;;;6.42;66.59;99703.38;5047962;28;20036;-67
2024/03/26 06:06:38;;;;;;;1.27;0.20;;;;;;;6.55;66.96;99696.16;5048128;28;20154;-67
2024/03/26 06:09:03;;;;;;;3.00;0.30;;;;;;;6.64;65.83;99680.59;5046151;28;20032;-66
2024/03/26 06:11:29;;;;;;;4.85;0.40;;;;;;;6.69;66.09;99676.78;5042914;28;20499;-66
2024/03/26 06:13:54;;;;;;;4.85;0.20;;;;;;;6.76;66.22;99668.31;5041050;28;20021;-67
2024/03/26 06:16:20;;;;;;;0.90;0.20;;;;;;;6.82;65.68;99678.13;5035302;28;20033;-67
2024/03/26 06:18:45;;;;;;;0.60;0.10;;;;;;;6.88;65.43;99677.56;5041332;28;20040;-67
2024/03/26 06:21:11;;;;;;;0.73;0.20;;;;;;;6.94;64.80;99677.03;5040471;28;20035;-67
2024/03/26 06:23:37;;;;;;;9.73;0.30;;;;;;;6.99;65.10;99674.81;5044465;28;20037;-66
2024/03/26 06:26:03;;;;;;;1.35;0.43;;;;;;;7.05;65.29;99672.63;5036612;28;20025;-67
2024/03/26 06:28:29;;;;;;;2.78;0.20;;;;;;;7.07;64.68;99665.53;5041026;28;20044;-67
2024/03/26 06:30:54;;;;;;;4.25;0.20;;;;;;;7.11;64.46;99666.84;5038849;28;20029;-67
2024/03/26 06:33:20;;;;;;;6.38;0.40;;;;;;;7.18;64.18;99660.16;5041846;28;20041;-67
2024/03/26 06:35:45;;;;;;;8.18;0.20;;;;;;;7.28;63.94;99661.75;5043156;28;20032;-67
2024/03/26 06:38:11;;;;;;;1.10;0.40;;;;;;;7.41;63.86;99666.63;5045943;28;20111;-67
2024/03/26 06:40:37;;;;;;;1.27;0.10;;;;;;;7.52;63.34;99673.41;5046186;28;20025;-67
2024/03/26 06:43:03;;;;;;;2.75;0.28;;;;;;;7.66;63.32;99668.50;5051260;28;20029;-67
2024/03/26 06:45:29;;;;;;;1.65;0.30;;;;;;;7.82;62.25;99672.25;5040839;28;20129;-67
2024/03/26 06:47:55;;;;;;;4.18;0.28;;;;;;;7.94;63.46;99681.47;5045427;28;20108;-67
2024/03/26 06:50:21;;;;;;;3.75;0.40;;;;;;;8.10;62.68;99681.59;5047467;28;20123;-67
2024/03/26 06:52:47;;;;;;;0.93;0.20;;;;;;;8.27;61.76;99693.78;5048246;28;20492;-67
2024/03/26 06:55:17;;;;;;;1.42;0.35;;;;;;;8.62;61.31;99692.16;5045432;28;20037;-67
2024/03/26 06:57:43;;;;;;;1.05;0.30;;;;;;;8.79;61.49;99693.91;5046676;28;20029;-67
2024/03/26 07:00:10;;;;;;;1.65;0.30;;;;;;;8.71;61.89;99704.22;5041794;28;20121;-67
2024/03/26 07:02:38;;;;;;;2.40;0.20;;;;;;;8.50;61.12;99711.53;5047044;28;20057;-67
2024/03/26 07:05:05;;;;;;;2.67;0.20;;;;;;;8.40;61.98;99714.22;5048511;28;20020;-68
2024/03/26 07:07:33;;;;;;;3.13;0.20;;;;;;;8.39;62.30;99724.75;5043113;28;20036;-67
2024/03/26 07:09:59;;;;;;;1.92;0.28;;;;;;;8.51;63.42;99732.13;5042752;28;20418;-67
2024/03/26 07:12:25;;;;;;;5.07;0.38;;;;;;;8.46;63.08;99728.38;5048332;28;20055;-68
2024/03/26 07:14:51;;;;;;;1.65;0.10;;;;;;;8.48;63.32;99734.25;5035961;28;20111;-67
2024/03/26 07:17:16;;;;;;;4.32;0.30;;;;;;;8.55;62.60;99735.25;5043052;28;20546;-67
2024/03/26 07:19:42;;;;;;;3.95;0.40;;;;;;;8.64;62.07;99731.75;5044228;28;20040;-67
2024/03/26 07:22:08;;;;;;;1.45;0.30;;;;;;;8.81;61.99;99743.09;5037614;28;20116;-68
2024/03/26 07:24:35;;;;;;;5.45;0.60;;;;;;;8.97;61.26;99738.03;5044318;28;21708;-67
2024/03/26 07:27:00;;;;;;;5.57;0.20;;;;;;;9.25;61.14;99736.09;5040288;28;20112;-67
2024/03/26 07:29:26;;;;;;;2.90;0.20;;;;;;;9.74;59.85;99729.34;5046380;28;20025;-67
2024/03/26 07:31:51;;;;;;;0.75;0.10;;;;;;;10.13;58.38;99718.38;5038203;28;20117;-67
2024/03/26 07:34:17;;;;;;;5.25;0.20;;;;;;;10.41;57.06;99731.97;5043878;28;20529;-66
2024/03/26 07:36:42;;;;;;;3.15;0.25;;;;;;;10.46;56.12;99732.28;5038872;28;20495;-66
2024/03/26 07:39:15;;;;;;;1.65;0.10;;;;;;;10.53;55.86;99739.31;5038295;28;20045;-69
2024/03/26 07:41:40;;;;;;;1.25;0.30;;;;;;;10.75;56.06;99732.66;5043057;28;20041;-69
2024/03/26 07:44:06;;;;;;;3.05;0.10;;;;;;;10.58;55.71;99726.59;5040226;28;20420;-69
2024/03/26 07:46:31;;;;;;;1.33;0.10;;;;;;;10.61;56.19;99730.69;5042436;28;20472;-69
2024/03/26 07:48:57;;;;;;;2.17;0.20;;;;;;;10.68;57.78;99726.44;5048339;28;20052;-69
2024/03/26 07:51:22;;;;;;;1.60;0.20;;;;;;;11.19;56.37;99714.00;5044544;28;20088;-69
2024/03/26 07:53:51;;;;;;;0.75;0.00;;;;;;;11.58;53.38;99714.84;5040492;28;20040;-69
2024/03/26 07:56:16;;;;;;;1.17;0.20;;;;;;;11.87;54.29;99703.00;5042241;28;20037;-69
2024/03/26 07:58:42;;;;;;;5.30;0.25;;;;;;;11.96;53.87;99700.19;5041792;28;20025;-69
2024/03/26 08:01:07;;;;;;;1.35;0.30;;;;;;;11.92;54.73;99687.66;5041531;28;20350;-68
2024/03/26 08:03:35;;;;;;;0.82;0.15;;;;;;;12.01;53.30;99689.22;5044265;28;20041;-68
2024/03/26 08:06:01;;;;;;;2.75;0.15;;;;;;;12.32;53.24;99686.56;5044438;28;20349;-68
2024/03/26 08:08:26;;;;;;;4.82;0.13;;;;;;;12.59;52.48;99683.41;5037806;28;20113;-67
2024/03/26 08:10:52;;;;;;;2.38;0.20;;;;;;;12.66;51.33;99674.88;5039070;28;20377;-68
2024/03/26 08:13:17;;;;;;;0.20;0.08;;;;;;;12.90;51.94;99669.41;5040188;28;20052;-66
2024/03/26 08:15:43;;;;;;;0.60;0.10;;;;;;;13.21;51.77;99664.06;5038774;28;20033;-66
2024/03/26 08:18:08;;;;;;;0.82;0.10;;;;;;;13.39;50.38;99651.41;5040069;28;20037;-66
2024/03/26 08:20:34;;;;;;;1.98;0.10;;;;;;;13.29;49.41;99653.47;5042921;28;20468;-68
2024/03/26 08:22:59;;;;;;;2.15;0.03;;;;;;;13.39;49.61;99647.97;5033806;28;20056;-68
2024/03/26 08:25:25;;;;;;;1.52;0.00;;;;;;;13.02;48.86;99646.25;5047435;28;20032;-67
2024/03/26 08:27:50;;;;;;;0.55;0.10;;;;;;;12.72;51.86;99633.16;5047812;28;20025;-68
2024/03/26 08:30:16;;;;;;;0.88;0.00;;;;;;;12.53;50.01;99625.81;5041998;28;20773;-69
2024/03/26 08:32:44;;;;;;;2.30;0.00;;;;;;;12.51;51.59;99625.19;5031879;28;20040;-68
2024/03/26 08:35:10;;;;;;;0.43;0.10;;;;;;;12.42;50.88;99631.47;5040450;28;20030;-68
2024/03/26 08:37:35;;;;;;;0.22;0.10;;;;;;;12.44;51.63;99626.88;5034948;28;20171;-68
2024/03/26 08:40:02;;;;;;;2.25;0.00;;;;;;;12.52;50.12;99613.75;5038435;28;20037;-69
2024/03/26 08:42:27;;;;;;;0.20;0.00;;;;;;;12.69;51.01;99607.38;5038926;28;20136;-69
2024/03/26 08:44:54;;;;;;;0.50;0.00;;;;;;;13.12;52.18;99603.16;5046325;28;20146;-69
2024/03/26 08:47:20;;;;;;;1.55;0.00;;;;;;;13.28;51.99;99591.69;5043245;28;20045;-69
2024/03/26 08:49:45;;;;;;;1.20;0.00;;;;;;;13.69;51.56;99575.47;5037995;28;20051;-69
2024/03/26 08:52:11;;;;;;;0.00;0.00;;;;;;;13.79;50.30;99576.75;5045315;28;20033;-69
2024/03/26 08:54:36;;;;;;;0.60;0.00;;;;;;;13.39;51.18;99565.06;5043222;28;20085;-69
2024/03/26 08:57:02;;;;;;;0.80;0.00;;;;;;;13.22;50.55;99574.13;5042819;28;20037;-69
2024/03/26 08:59:28;;;;;;;0.30;0.00;;;;;;;13.05;51.96;99567.44;5044545;28;20423;-69
2024/03/26 09:01:53;;;;;;;0.55;0.00;;;;;;;12.94;53.63;99560.88;5043956;28;20422;-69
2024/03/26 09:04:19;;;;;;;0.20;0.00;;;;;;;12.94;52.94;99558.25;5042837;28;20041;-68
2024/03/26 09:06:44;;;;;;;1.08;0.00;;;;;;;13.01;52.00;99563.56;5042403;28;20167;-68
2024/03/26 09:09:10;;;;;;;6.75;0.20;;;;;;;13.23;50.55;99565.28;5037218;28;20068;-68
2024/03/26 09:11:35;;;;;;;0.17;0.00;;;;;;;13.48;52.79;99550.88;5043136;28;20036;-68
2024/03/26 09:14:01;;;;;;;0.90;0.00;;;;;;;13.52;52.89;99548.69;5035179;28;20693;-68
2024/03/26 09:16:27;;;;;;;0.10;0.00;;;;;;;13.56;53.85;99549.94;5042289;28;20029;-68
2024/03/26 09:18:52;;;;;;;2.03;0.00;;;;;;;13.59;53.70;99549.59;5040623;28;20063;-68
2024/03/26 09:21:18;;;;;;;4.43;0.00;;;;;;;13.50;53.01;99550.69;5040990;28;20061;-68
2024/03/26 09:23:43;;;;;;;0.30;0.00;;;;;;;13.26;53.66;99547.41;5042927;28;20037;-68
2024/03/26 09:26:09;;;;;;;3.20;0.00;;;;;;;13.32;55.50;99543.25;5042459;28;20400;-68
2024/03/26 09:28:34;;;;;;;0.75;0.10;;;;;;;13.68;55.05;99542.44;5043391;28;20028;-71
2024/03/26 09:31:00;;;;;;;3.20;0.00;;;;;;;13.73;55.40;99540.03;5041144;28;20037;-68
2024/03/26 09:33:25;;;;;;;0.00;0.00;;;;;;;13.78;55.96;99527.19;5043014;28;20146;-68
2024/03/26 09:35:52;;;;;;;0.22;0.00;;;;;;;13.74;56.01;99525.94;5046148;28;20364;-66
2024/03/26 09:38:17;;;;;;;0.00;0.00;;;;;;;13.70;55.57;99530.78;5052879;28;20075;-67
2024/03/26 09:40:58;;;;;;;0.10;0.00;;;;;;;13.78;56.89;99527.19;5053502;28;20191;-67
2024/03/26 09:43:27;;;;;;;0.68;0.00;;;;;;;13.77;57.45;99530.81;5049564;28;20040;-67
2024/03/26 09:45:56;;;;;;;0.20;0.00;;;;;;;13.66;56.53;99540.00;5052101;28;20499;-66
2024/03/26 09:48:21;;;;;;;1.42;0.30;;;;;;;13.86;57.72;99537.53;5048160;28;20495;-67
2024/03/26 09:50:49;;;;;;;1.40;0.30;;;;;;;14.05;57.47;99529.06;5051080;28;20033;-67
2024/03/26 09:53:18;;;;;;;0.20;0.00;;;;;;;13.83;55.33;99530.06;5050661;28;20059;-67
2024/03/26 09:55:44;;;;;;;0.22;0.00;;;;;;;13.61;55.67;99524.84;5050421;28;20452;-67
2024/03/26 09:58:10;;;;;;;0.40;0.20;;;;;;;13.54;55.02;99525.78;5048989;28;20353;-68
2024/03/26 10:00:37;;;;;;;3.38;0.10;;;;;;;13.60;56.11;99520.59;5050664;28;20033;-67
2024/03/26 10:03:07;;;;;;;0.55;0.00;;;;;;;13.73;57.83;99519.09;5050155;28;20041;-68
2024/03/26 10:05:33;;;;;;;3.70;1.05;;;;;;;13.59;55.36;99528.66;5042957;28;20033;-67
2024/03/26 10:07:58;;;;;;;4.97;1.90;;;;;;;13.41;56.04;99521.22;5049491;28;20361;-67
2024/03/26 10:10:24;;;;;;;2.10;0.30;;;;;;;13.46;58.09;99511.00;5049577;28;20123;-68
2024/03/26 10:12:49;;;;;;;2.40;0.10;;;;;;;13.67;58.75;99504.97;5050628;28;20025;-68
2024/03/26 10:15:15;;;;;;;0.20;0.00;;;;;;;13.49;55.66;99507.19;5048299;28;20044;-67
2024/03/26 10:17:40;;;;;;;0.10;0.00;;;;;;;13.44;58.63;99499.91;5052674;28;20092;-68
2024/03/26 10:20:08;;;;;;;1.52;0.00;;;;;;;13.44;59.09;99497.28;5050298;28;20424;-68
2024/03/26 10:22:34;;;;;;;2.75;0.00;;;;;;;13.52;58.96;99489.31;5049992;28;20071;-69
2024/03/26 10:24:59;;;;;;;0.05;0.00;;;;;;;13.72;59.12;99491.28;5050725;28;20032;-69
2024/03/26 10:27:25;;;;;;;1.67;0.00;;;;;;;13.88;58.18;99488.41;5049072;28;20444;-68
2024/03/26 10:29:52;;;;;;;1.70;0.00;;;;;;;13.85;57.65;99486.16;5048536;28;20047;-68
2024/03/26 10:32:22;;;;;;;1.75;0.30;;;;;;;13.84;57.49;99481.94;5050631;28;20127;-68
2024/03/26 10:34:55;;;;;;;1.02;0.00;;;;;;;13.81;57.57;99483.13;5050603;28;20048;-68
2024/03/26 10:37:24;;;;;;;0.20;0.20;;;;;;;13.79;55.63;99479.06;5048688;28;20036;-68
2024/03/26 10:39:55;;;;;;;0.95;0.08;;;;;;;14.17;58.55;99469.09;5052581;28;20040;-69
2024/03/26 10:42:22;;;;;;;1.33;0.10;;;;;;;14.26;55.77;99467.91;5047570;28;20527;-69
2024/03/26 10:44:48;;;;;;;3.05;0.30;;;;;;;14.49;57.41;99459.84;5050287;28;20025;-68
2024/03/26 10:47:14;;;;;;;0.47;0.03;;;;;;;15.01;56.75;99453.19;5046425;28;20055;-68
2024/03/26 10:49:40;;;;;;;0.32;0.00;;;;;;;15.42;56.97;99456.50;5049663;28;20098;-68
2024/03/26 10:52:07;;;;;;;1.90;0.00;;;;;;;15.57;56.23;99449.28;5047853;28;20496;-68
2024/03/26 10:54:34;;;;;;;0.73;0.00;;;;;;;15.41;56.35;99451.44;5050627;28;20025;-69
2024/03/26 10:57:01;;;;;;;0.20;0.00;;;;;;;15.51;56.61;99436.09;5044715;28;20091;-68
2024/03/26 10:59:27;;;;;;;1.30;0.00;;;;;;;15.41;57.51;99439.13;5049525;28;20033;-68
2024/03/26 11:01:53;;;;;;;0.45;0.00;;;;;;;15.32;57.42;99437.69;5049766;28;20025;-68
2024/03/26 11:04:19;;;;;;;0.25;0.00;;;;;;;14.64;52.72;99436.13;5048335;28;20045;-67
2024/03/26 11:06:46;;;;;;;0.30;0.00;;;;;;;14.41;55.71;99431.13;5049978;28;20033;-68
2024/03/26 11:09:15;;;;;;;1.52;0.00;;;;;;;14.31;55.93;99426.22;5049408;28;20044;-68
2024/03/26 11:11:48;;;;;;;0.10;0.00;;;;;;;14.55;57.84;99422.38;5049799;28;20404;-69
2024/03/26 11:14:14;;;;;;;0.32;0.00;;;;;;;14.74;57.62;99424.22;5043012;28;20399;-68
2024/03/26 11:16:41;;;;;;;0.35;0.00;;;;;;;14.86;58.68;99419.22;5045599;28;20025;-68
2024/03/26 11:19:24;;;;;;;1.48;0.00;;;;;;;14.89;57.86;99413.59;5048736;28;20040;-68
2024/03/26 11:21:53;;;;;;;1.33;0.22;;;;;;;14.90;58.79;99408.16;5045418;28;20436;-68
2024/03/26 11:24:22;;;;;;;1.85;0.20;;;;;;;14.89;59.28;99406.53;5048391;28;20045;-69
2024/03/26 11:26:48;;;;;;;1.10;0.20;;;;;;;14.71;58.11;99408.88;5046189;28;20028;-68
2024/03/26 11:29:14;;;;;;;0.75;0.10;;;;;;;14.56;59.47;99405.63;5048597;28;20131;-68
2024/03/26 11:31:41;;;;;;;1.75;0.10;;;;;;;14.64;59.94;99405.47;5048216;28;20033;-68
2024/03/26 11:34:07;;;;;;;0.10;0.00;;;;;;;14.41;54.82;99407.53;5048068;28;20045;-68